Time;durP1;ratioP1;P1;durP2;ratioP2;P2;SDS_P1;SDS_P2;PMS_P1;PMS_P2;Temp;Humidity;BMP_temperature;BMP_pressure;BME280_temperature;BME280_humidity;BME280_pressure;Samples;Min_cycle;Max_cycle;Signal;HPM_P1;HPM_P2
2021/10/01 00:01:13;;;;;;;6.80;0.80;;;21.60;58.00;;;;;;4995578;28;20130;-74
2021/10/01 00:03:39;;;;;;;3.05;0.70;;;21.60;58.00;;;;;;4995564;28;20029;-75
2021/10/01 00:06:06;;;;;;;4.55;0.90;;;21.60;58.10;;;;;;4993570;28;20038;-74
2021/10/01 00:08:33;;;;;;;4.07;0.70;;;21.60;58.20;;;;;;4994865;28;20042;-74
2021/10/01 00:10:59;;;;;;;7.38;0.98;;;21.60;58.10;;;;;;4994674;28;20038;-74
2021/10/01 00:13:26;;;;;;;4.25;0.80;;;21.60;58.10;;;;;;4993946;28;20046;-75
2021/10/01 00:15:52;;;;;;;4.38;1.20;;;21.60;58.00;;;;;;4994597;28;20093;-74
2021/10/01 00:18:21;;;;;;;5.10;0.88;;;21.60;58.10;;;;;;4994510;28;20108;-74
2021/10/01 00:20:47;;;;;;;4.15;0.80;;;21.60;58.10;;;;;;4994031;28;20045;-74
2021/10/01 00:23:13;;;;;;;5.90;1.10;;;21.60;58.20;;;;;;4995319;28;20046;-74
2021/10/01 00:25:38;;;;;;;2.90;0.80;;;21.60;58.10;;;;;;4993897;28;20125;-74
2021/10/01 00:28:06;;;;;;;3.38;0.77;;;21.60;58.10;;;;;;4993327;28;20046;-74
2021/10/01 00:30:31;;;;;;;4.07;0.70;;;21.50;57.90;;;;;;4994901;28;20034;-74
2021/10/01 00:32:58;;;;;;;5.50;0.93;;;21.60;58.10;;;;;;4995394;28;20129;-74
2021/10/01 00:35:26;;;;;;;4.15;0.80;;;21.50;57.90;;;;;;4992379;28;20038;-74
2021/10/01 00:37:51;;;;;;;4.28;0.75;;;21.50;57.90;;;;;;4993947;28;20037;-74
2021/10/01 00:40:17;;;;;;;4.00;0.70;;;21.50;57.80;;;;;;4993874;28;20054;-74
2021/10/01 00:42:43;;;;;;;3.50;0.80;;;21.50;57.90;;;;;;4993674;28;20059;-74
2021/10/01 00:45:09;;;;;;;5.25;0.90;;;21.50;57.90;;;;;;4993018;28;20199;-74
2021/10/01 00:47:36;;;;;;;3.88;0.80;;;21.50;57.90;;;;;;4995735;28;20099;-74
2021/10/01 00:50:02;;;;;;;2.92;0.70;;;21.50;57.90;;;;;;4993071;28;20100;-74
2021/10/01 00:52:28;;;;;;;3.60;0.75;;;21.50;57.90;;;;;;4993151;28;20128;-74
2021/10/01 00:54:54;;;;;;;3.75;0.80;;;21.50;57.90;;;;;;4997902;28;20495;-74
2021/10/01 00:57:20;;;;;;;3.85;0.70;;;21.50;57.90;;;;;;5001806;28;20049;-74
2021/10/01 00:59:45;;;;;;;6.32;0.93;;;21.50;57.90;;;;;;4995328;28;20555;-74
2021/10/01 01:02:12;;;;;;;3.53;0.80;;;21.50;57.90;;;;;;5011224;28;20132;-74
2021/10/01 01:04:44;;;;;;;5.35;0.77;;;21.50;58.00;;;;;;4994229;28;20038;-74
2021/10/01 01:07:27;;;;;;;3.42;0.68;;;21.50;57.90;;;;;;4996129;28;20134;-74
2021/10/01 01:09:59;;;;;;;3.42;0.68;;;21.50;58.60;;;;;;4998920;28;20045;-74
2021/10/01 01:12:58;;;;;;;2.20;0.57;;;21.50;57.90;;;;;;4997634;28;20042;-75
2021/10/01 01:15:31;;;;;;;2.33;0.52;;;21.50;57.90;;;;;;5004918;28;20061;-74
2021/10/01 01:18:02;;;;;;;3.40;0.80;;;21.50;58.00;;;;;;4995507;28;20141;-75
2021/10/01 01:20:39;;;;;;;5.68;0.95;;;21.50;58.00;;;;;;4996461;28;20038;-75
2021/10/01 01:23:38;;;;;;;5.97;0.80;;;21.50;57.90;;;;;;4998400;28;20042;-73
2021/10/01 01:26:25;;;;;;;3.50;0.70;;;21.50;57.80;;;;;;4996860;28;20065;-74
2021/10/01 01:29:18;;;;;;;6.47;0.73;;;21.50;57.90;;;;;;4996587;28;20141;-74
2021/10/01 01:31:46;;;;;;;5.53;0.70;;;21.50;57.90;;;;;;5011824;28;20038;-74
2021/10/01 01:34:19;;;;;;;3.60;0.70;;;21.50;57.90;;;;;;5001682;28;20045;-74
2021/10/01 01:36:50;;;;;;;4.53;0.70;;;21.50;58.50;;;;;;4996670;28;20041;-74
2021/10/01 01:39:18;;;;;;;4.32;1.25;;;21.50;57.90;;;;;;4999663;28;20520;-73
2021/10/01 01:41:50;;;;;;;3.78;0.70;;;21.50;57.90;;;;;;5012405;28;20058;-74
2021/10/01 01:44:16;;;;;;;5.25;0.73;;;21.40;57.70;;;;;;5012960;28;20046;-74
2021/10/01 01:46:43;;;;;;;4.65;0.70;;;21.40;57.80;;;;;;5003129;28;20042;-74
2021/10/01 01:49:12;;;;;;;2.28;0.55;;;21.40;57.80;;;;;;4996878;28;20065;-74
2021/10/01 01:51:38;;;;;;;2.72;0.60;;;21.50;57.90;;;;;;4997193;28;20054;-74
2021/10/01 01:54:04;;;;;;;3.45;0.70;;;21.40;57.70;;;;;;5011399;28;20050;-74
2021/10/01 01:56:31;;;;;;;3.65;0.65;;;21.40;57.70;;;;;;5011657;28;20034;-74
2021/10/01 01:59:00;;;;;;;2.90;0.68;;;21.40;57.70;;;;;;4998890;28;20384;-74
2021/10/01 02:01:40;;;;;;;4.43;0.77;;;21.50;57.90;;;;;;5013033;28;20046;-73
2021/10/01 02:04:15;;;;;;;3.60;0.80;;;21.40;57.70;;;;;;4994295;28;20128;-74
2021/10/01 02:06:45;;;;;;;1.50;0.43;;;21.50;57.90;;;;;;4993339;28;20042;-74
2021/10/01 02:09:12;;;;;;;5.93;0.75;;;21.40;57.80;;;;;;4997573;28;20045;-74
2021/10/01 02:11:42;;;;;;;4.88;0.70;;;21.40;57.70;;;;;;5014203;28;20563;-74
2021/10/01 02:14:08;;;;;;;6.25;0.63;;;21.40;57.60;;;;;;4995847;28;20041;-74
2021/10/01 02:16:35;;;;;;;5.05;0.82;;;21.40;57.60;;;;;;4999916;28;20843;-74
2021/10/01 02:19:02;;;;;;;3.53;0.57;;;21.40;57.60;;;;;;4993685;28;20038;-74
2021/10/01 02:21:29;;;;;;;3.20;0.70;;;21.40;57.60;;;;;;4996349;28;20042;-74
2021/10/01 02:23:56;;;;;;;3.00;0.60;;;21.40;57.70;;;;;;4997943;28;20096;-74
2021/10/01 02:26:55;;;;;;;3.53;0.60;;;21.40;57.60;;;;;;4994527;28;20038;-74
2021/10/01 02:29:48;;;;;;;3.33;0.80;;;21.40;57.60;;;;;;4988581;28;20042;-74
2021/10/01 02:32:20;;;;;;;4.55;0.57;;;21.40;57.50;;;;;;4997240;28;20034;-74
2021/10/01 02:34:47;;;;;;;3.13;0.63;;;21.50;57.80;;;;;;4993345;28;20073;-73
2021/10/01 02:37:20;;;;;;;1.95;0.57;;;21.40;57.60;;;;;;5011504;28;20038;-74
2021/10/01 02:39:50;;;;;;;2.17;0.60;;;21.40;57.60;;;;;;4997996;28;20045;-74
2021/10/01 02:42:17;;;;;;;1.55;0.50;;;21.40;57.60;;;;;;4993729;28;20550;-74
2021/10/01 02:44:44;;;;;;;5.47;0.80;;;21.40;57.70;;;;;;4997886;28;20711;-74
2021/10/01 02:47:12;;;;;;;13.52;0.80;;;21.40;57.60;;;;;;4996634;28;20053;-74
2021/10/01 02:49:40;;;;;;;2.90;0.68;;;21.40;57.60;;;;;;4997301;28;20046;-74
2021/10/01 02:52:32;;;;;;;10.10;0.73;;;21.40;57.60;;;;;;4997829;28;20641;-74
2021/10/01 02:55:39;;;;;;;3.13;0.80;;;21.40;57.50;;;;;;4995930;28;20042;-74
2021/10/01 02:58:07;;;;;;;3.63;0.70;;;21.40;57.50;;;;;;4996005;28;20038;-74
2021/10/01 03:00:35;;;;;;;5.10;0.75;;;21.40;57.50;;;;;;4995080;28;20042;-74
2021/10/01 03:03:05;;;;;;;4.93;0.60;;;21.40;57.50;;;;;;4997668;28;20039;-74
2021/10/01 03:05:31;;;;;;;4.40;0.70;;;21.40;57.50;;;;;;5009312;28;20046;-75
2021/10/01 03:07:59;;;;;;;8.07;0.60;;;21.40;57.50;;;;;;4997689;28;20042;-74
2021/10/01 03:10:25;;;;;;;2.97;0.60;;;21.40;57.50;;;;;;5008869;28;20563;-74
2021/10/01 03:12:53;;;;;;;1.90;0.50;;;21.40;57.50;;;;;;4993942;28;20534;-74
2021/10/01 03:15:20;;;;;;;8.45;0.70;;;21.40;57.50;;;;;;4992460;28;20046;-74
2021/10/01 03:17:46;;;;;;;4.43;0.70;;;21.40;57.50;;;;;;4995442;28;20209;-74
2021/10/01 03:20:14;;;;;;;5.68;0.80;;;21.40;57.50;;;;;;4999246;28;20100;-74
2021/10/01 03:22:41;;;;;;;3.45;0.60;;;21.40;57.40;;;;;;5010584;28;20046;-74
2021/10/01 03:25:10;;;;;;;4.15;0.77;;;21.40;57.40;;;;;;4993694;28;20069;-73
2021/10/01 03:27:36;;;;;;;3.78;0.73;;;21.40;57.40;;;;;;4995680;28;20042;-74
2021/10/01 03:30:06;;;;;;;2.85;0.60;;;21.40;57.40;;;;;;5008156;28;20037;-74
2021/10/01 03:32:32;;;;;;;4.05;0.60;;;21.40;57.30;;;;;;5001748;28;20041;-74
2021/10/01 03:35:02;;;;;;;1.75;0.50;;;21.40;57.30;;;;;;4991895;28;20052;-74
2021/10/01 03:37:29;;;;;;;4.30;0.70;;;21.40;57.20;;;;;;5010911;28;20101;-74
2021/10/01 03:39:57;;;;;;;2.67;0.80;;;21.40;57.10;;;;;;4995713;28;20038;-73
2021/10/01 03:42:23;;;;;;;3.40;0.60;;;21.40;57.00;;;;;;5010307;28;20087;-74
2021/10/01 03:44:49;;;;;;;2.17;0.55;;;21.40;57.30;;;;;;4995178;28;20030;-74
2021/10/01 03:47:14;;;;;;;2.90;0.60;;;21.40;57.10;;;;;;4997517;28;20120;-74
2021/10/01 03:49:40;;;;;;;1.52;0.35;;;21.30;56.90;;;;;;4995711;28;20041;-74
2021/10/01 03:52:09;;;;;;;4.00;0.65;;;21.30;56.80;;;;;;5010588;28;20567;-74
2021/10/01 03:54:36;;;;;;;3.92;0.70;;;21.40;57.00;;;;;;5008600;28;20835;-74
2021/10/01 03:57:02;;;;;;;3.28;0.57;;;21.40;57.00;;;;;;5010222;28;20056;-74
2021/10/01 03:59:28;;;;;;;2.70;0.75;;;21.40;57.00;;;;;;5010167;28;20045;-74
2021/10/01 04:01:53;;;;;;;2.88;0.55;;;21.40;57.00;;;;;;5001500;28;20038;-74
2021/10/01 04:04:19;;;;;;;4.18;0.70;;;21.40;56.90;;;;;;5000156;28;20085;-74
2021/10/01 04:06:46;;;;;;;1.73;0.45;;;21.40;56.90;;;;;;5011042;28;20088;-74
2021/10/01 04:09:12;;;;;;;2.40;0.57;;;21.30;56.60;;;;;;4994759;28;20030;-74
2021/10/01 04:11:39;;;;;;;3.60;0.70;;;21.40;56.80;;;;;;4992115;28;20045;-74
2021/10/01 04:14:07;;;;;;;6.35;1.17;;;21.40;56.70;;;;;;4999042;28;20041;-74
2021/10/01 04:16:33;;;;;;;12.43;1.58;;;21.40;56.80;;;;;;4994811;28;20037;-74
2021/10/01 04:18:59;;;;;;;19.40;2.13;;;21.40;56.90;;;;;;4997833;28;20035;-74
2021/10/01 04:21:25;;;;;;;14.95;2.03;;;21.40;56.80;;;;;;4994203;28;20475;-74
2021/10/01 04:23:50;;;;;;;13.30;2.22;;;21.40;56.80;;;;;;4992824;28;20569;-74
2021/10/01 04:26:39;;;;;;;20.70;2.17;;;21.40;56.90;;;;;;4994682;28;20030;-74
2021/10/01 04:29:05;;;;;;;14.48;2.35;;;21.40;56.80;;;;;;5008008;28;20078;-74
2021/10/01 04:31:30;;;;;;;17.77;2.72;;;21.40;56.90;;;;;;4994115;28;20042;-74
2021/10/01 04:33:57;;;;;;;19.70;2.90;;;21.40;56.90;;;;;;4995023;28;20671;-74
2021/10/01 04:36:26;;;;;;;18.70;3.25;;;21.40;56.80;;;;;;4995114;28;20060;-74
2021/10/01 04:38:52;;;;;;;22.95;2.45;;;21.40;57.00;;;;;;4999438;28;20033;-75
2021/10/01 04:41:17;;;;;;;19.83;2.97;;;21.40;56.80;;;;;;5013442;28;20061;-74
2021/10/01 04:43:43;;;;;;;16.20;2.63;;;21.40;57.00;;;;;;5004931;28;20034;-74
2021/10/01 04:46:25;;;;;;;13.63;2.35;;;21.40;57.00;;;;;;4997159;28;20117;-74
2021/10/01 04:48:52;;;;;;;17.83;2.60;;;21.40;57.10;;;;;;5006424;28;20553;-74
2021/10/01 04:51:24;;;;;;;13.50;2.65;;;21.40;57.00;;;;;;4997555;28;20195;-75
2021/10/01 04:53:49;;;;;;;20.02;3.20;;;21.40;57.00;;;;;;5001811;28;20089;-74
2021/10/01 04:56:15;;;;;;;23.15;3.17;;;21.40;57.00;;;;;;5002191;28;20061;-74
2021/10/01 04:58:41;;;;;;;19.38;3.15;;;21.40;57.00;;;;;;5015832;28;20034;-74
2021/10/01 05:01:38;;;;;;;19.65;3.50;;;21.40;57.00;;;;;;4997222;28;20511;-74
2021/10/01 05:04:40;;;;;;;16.23;2.90;;;21.40;57.00;;;;;;4979442;28;20061;-74
2021/10/01 05:07:19;;;;;;;19.88;3.70;;;21.30;56.80;;;;;;5002161;28;20534;-74
2021/10/01 05:10:14;;;;;;;20.40;3.38;;;21.40;57.00;;;;;;5004400;28;20045;-74
2021/10/01 05:12:59;;;;;;;22.58;3.47;;;21.40;57.10;;;;;;4996977;28;20097;-74
2021/10/01 05:15:43;;;;;;;20.20;2.80;;;21.30;56.80;;;;;;4997438;28;20046;-74
2021/10/01 05:18:28;;;;;;;16.83;2.97;;;21.40;56.70;;;;;;4997581;28;20076;-74
2021/10/01 05:21:12;;;;;;;15.20;2.70;;;21.40;57.10;;;;;;4999725;28;20636;-74
2021/10/01 05:23:55;;;;;;;21.60;3.20;;;21.40;57.10;;;;;;5013159;28;20521;-74
2021/10/01 05:26:21;;;;;;;19.63;3.65;;;21.30;57.00;;;;;;5004102;28;20045;-74
2021/10/01 05:28:46;;;;;;;16.27;3.33;;;21.40;57.20;;;;;;4998328;28;20081;-74
2021/10/01 05:31:12;;;;;;;18.63;2.90;;;21.40;57.20;;;;;;4999608;28;20117;-74
2021/10/01 05:33:37;;;;;;;17.27;3.60;;;21.30;57.10;;;;;;4997631;28;20577;-74
2021/10/01 05:36:03;;;;;;;22.48;3.67;;;21.30;57.20;;;;;;5013790;28;20046;-74
2021/10/01 05:38:30;;;;;;;23.88;3.70;;;21.30;57.10;;;;;;5000156;28;20037;-74
2021/10/01 05:40:57;;;;;;;27.65;3.08;;;21.30;56.40;;;;;;4999364;28;20037;-74
2021/10/01 05:43:25;;;;;;;23.48;3.20;;;21.30;54.70;;;;;;5004036;28;20044;-74
2021/10/01 05:45:53;;;;;;;14.98;2.83;;;21.30;53.70;;;;;;5012774;28;20597;-74
2021/10/01 05:48:41;;;;;;;15.80;2.58;;;21.30;52.90;;;;;;4996230;28;20069;-74
2021/10/01 05:51:27;;;;;;;21.00;1.92;;;21.20;52.50;;;;;;4995422;28;20080;-69
2021/10/01 05:54:13;;;;;;;13.20;1.70;;;21.20;48.50;;;;;;4997063;28;20104;-72
2021/10/01 05:56:58;;;;;;;10.38;1.63;;;21.10;47.30;;;;;;4998861;28;20188;-67
2021/10/01 05:59:56;;;;;;;7.53;1.60;;;21.20;49.40;;;;;;5003651;28;20038;-66
2021/10/01 06:02:22;;;;;;;7.10;1.23;;;21.40;50.90;;;;;;5012746;28;20113;-67
2021/10/01 06:04:52;;;;;;;10.32;1.80;;;21.50;51.50;;;;;;4995569;28;20046;-67
2021/10/01 06:07:20;;;;;;;7.97;1.63;;;21.60;51.80;;;;;;4994288;28;20057;-67
2021/10/01 06:09:46;;;;;;;9.32;1.70;;;21.80;52.50;;;;;;4997675;28;20747;-67
2021/10/01 06:12:13;;;;;;;8.52;1.58;;;21.90;52.80;;;;;;4997851;28;20555;-67
2021/10/01 06:14:40;;;;;;;9.88;1.30;;;22.00;53.00;;;;;;4998343;28;20046;-66
2021/10/01 06:17:07;;;;;;;7.90;1.30;;;22.10;53.20;;;;;;4995439;28;20137;-69
2021/10/01 06:19:34;;;;;;;7.70;1.38;;;22.20;53.70;;;;;;4997793;28;20052;-66
2021/10/01 06:22:01;;;;;;;5.65;1.17;;;22.30;53.50;;;;;;4973486;28;20050;-70
2021/10/01 06:24:27;;;;;;;6.05;1.35;;;22.40;53.50;;;;;;4995909;28;20045;-68
2021/10/01 06:26:55;;;;;;;5.72;1.20;;;22.40;53.40;;;;;;4996963;28;20050;-69
2021/10/01 06:29:22;;;;;;;7.72;1.30;;;22.50;53.50;;;;;;4996619;28;20042;-75
2021/10/01 06:31:48;;;;;;;6.55;1.33;;;22.60;53.70;;;;;;4996239;28;20057;-74
2021/10/01 06:34:14;;;;;;;8.82;1.55;;;22.70;53.80;;;;;;4993632;28;20046;-74
2021/10/01 06:36:40;;;;;;;8.95;1.50;;;22.70;53.80;;;;;;4995780;28;20030;-75
2021/10/01 06:39:07;;;;;;;7.45;1.40;;;22.80;53.90;;;;;;4995588;28;20038;-75
2021/10/01 06:41:33;;;;;;;5.85;1.42;;;22.80;53.90;;;;;;4995199;28;20476;-75
2021/10/01 06:44:02;;;;;;;6.40;1.50;;;22.90;53.90;;;;;;4995819;28;20069;-75
2021/10/01 06:46:35;;;;;;;6.75;1.42;;;22.90;53.90;;;;;;4999849;28;20502;-74
2021/10/01 08:21:14;;;;;;;4.65;1.25;;;24.00;53.90;;;;;;4995559;28;20042;-69
2021/10/01 08:23:42;;;;;;;8.35;1.20;;;23.90;53.70;;;;;;4993633;28;20037;-69
2021/10/01 08:26:08;;;;;;;9.15;1.58;;;23.90;53.90;;;;;;4991199;28;20038;-68
2021/10/01 08:28:34;;;;;;;7.60;1.42;;;24.00;53.90;;;;;;4992854;28;20137;-68
2021/10/01 08:31:10;;;;;;;4.78;1.20;;;23.90;53.50;;;;;;5009705;28;20519;-70
2021/10/01 08:33:36;;;;;;;10.40;1.50;;;24.00;53.80;;;;;;5001360;28;20132;-69
2021/10/01 08:36:02;;;;;;;10.13;1.83;;;23.80;53.30;;;;;;4993846;28;20089;-68
2021/10/01 08:38:28;;;;;;;12.45;1.70;;;23.90;53.90;;;;;;4994105;28;20035;-69
2021/10/01 08:40:53;;;;;;;14.40;1.80;;;23.90;53.90;;;;;;4992621;28;20566;-69
2021/10/01 08:43:19;;;;;;;9.73;1.60;;;24.00;54.10;;;;;;4994968;28;20104;-70
2021/10/01 08:45:46;;;;;;;8.80;1.50;;;24.10;54.20;;;;;;4995949;28;20093;-69
2021/10/01 08:48:12;;;;;;;6.65;1.60;;;24.10;54.40;;;;;;4995942;28;20499;-69
2021/10/01 08:50:39;;;;;;;8.40;1.55;;;24.20;54.40;;;;;;4993371;28;20054;-69
2021/10/01 08:53:06;;;;;;;6.07;1.50;;;24.30;55.00;;;;;;4994197;28;20077;-70
2021/10/01 08:55:32;;;;;;;6.75;1.52;;;24.30;54.60;;;;;;4992639;28;20041;-69
2021/10/01 08:57:58;;;;;;;5.32;1.48;;;24.30;55.20;;;;;;4993033;28;20518;-69
2021/10/01 09:00:24;;;;;;;5.90;1.17;;;24.40;55.20;;;;;;4993180;28;20046;-69
2021/10/01 09:02:50;;;;;;;6.25;1.40;;;24.50;54.60;;;;;;4994980;28;20100;-69
2021/10/01 09:05:17;;;;;;;7.65;1.30;;;24.50;54.30;;;;;;4992611;28;20052;-69
2021/10/01 09:07:43;;;;;;;5.90;1.48;;;24.50;54.30;;;;;;4995151;28;20507;-68
2021/10/01 09:10:10;;;;;;;13.00;1.50;;;24.50;54.20;;;;;;4993767;28;20057;-69
2021/10/01 09:12:36;;;;;;;6.18;1.50;;;24.50;54.40;;;;;;4994704;28;20039;-69
2021/10/01 09:15:04;;;;;;;7.32;1.40;;;24.50;54.30;;;;;;4994651;28;20412;-69
2021/10/01 09:17:33;;;;;;;6.32;1.30;;;24.50;54.30;;;;;;4992195;28;20115;-69
2021/10/01 09:20:00;;;;;;;7.05;1.60;;;24.60;54.60;;;;;;4993827;28;20454;-69
2021/10/01 09:22:28;;;;;;;5.43;1.42;;;24.60;54.50;;;;;;4993752;28;20695;-67
2021/10/01 09:25:12;;;;;;;6.88;1.20;;;24.60;54.60;;;;;;4995748;28;20046;-66
2021/10/01 09:27:40;;;;;;;6.20;1.38;;;24.60;54.50;;;;;;4997573;28;20649;-67
2021/10/01 09:30:08;;;;;;;9.40;1.65;;;24.60;54.40;;;;;;4997111;28;20046;-67
2021/10/01 09:32:34;;;;;;;5.63;1.23;;;24.60;54.90;;;;;;4999131;28;20038;-67
2021/10/01 09:35:10;;;;;;;5.25;1.50;;;24.60;54.30;;;;;;4997812;28;20042;-67
2021/10/01 09:37:36;;;;;;;7.03;1.40;;;24.60;54.20;;;;;;4997095;28;20050;-67
2021/10/01 09:40:02;;;;;;;6.00;1.70;;;24.70;54.60;;;;;;4995142;28;20042;-66
2021/10/01 09:42:33;;;;;;;8.32;1.40;;;24.60;54.50;;;;;;4996423;28;20069;-67
2021/10/01 09:45:06;;;;;;;11.00;1.70;;;24.70;54.90;;;;;;4995110;28;20515;-67
2021/10/01 09:47:36;;;;;;;7.43;1.58;;;24.70;54.80;;;;;;4996312;28;20053;-67
2021/10/01 09:50:12;;;;;;;9.40;1.50;;;24.80;54.80;;;;;;4997163;28;20065;-67
2021/10/01 09:52:47;;;;;;;9.88;1.40;;;24.80;54.70;;;;;;4996311;28;20569;-67
2021/10/01 09:55:15;;;;;;;11.95;1.30;;;24.80;54.70;;;;;;4996315;28;20436;-67
2021/10/01 09:57:58;;;;;;;6.70;1.80;;;24.80;54.70;;;;;;4997335;28;20081;-67
2021/10/01 10:00:33;;;;;;;12.63;1.67;;;24.80;54.10;;;;;;4995055;28;20045;-67
2021/10/01 10:02:59;;;;;;;7.03;1.58;;;24.70;53.90;;;;;;4997247;28;20045;-67
2021/10/01 10:05:54;;;;;;;7.68;1.60;;;24.60;53.80;;;;;;4997841;28;21348;-68
2021/10/01 10:08:33;;;;;;;8.25;1.40;;;24.60;54.10;;;;;;4999101;28;20038;-67
2021/10/01 10:11:00;;;;;;;6.68;1.52;;;24.60;54.30;;;;;;4996481;28;20050;-68
2021/10/01 10:13:43;;;;;;;5.18;1.20;;;24.70;54.60;;;;;;4995893;28;20100;-68
2021/10/01 10:16:16;;;;;;;11.45;1.48;;;24.80;54.50;;;;;;4997226;28;20181;-69
2021/10/01 10:18:43;;;;;;;5.97;1.30;;;24.80;54.80;;;;;;4998022;28;20034;-67
2021/10/01 10:21:09;;;;;;;4.90;1.25;;;24.90;54.60;;;;;;4998748;28;20030;-67
2021/10/01 10:23:35;;;;;;;4.97;1.38;;;25.00;54.50;;;;;;4996795;28;20030;-67
2021/10/01 10:26:01;;;;;;;10.85;1.50;;;25.00;54.60;;;;;;4998515;28;20041;-67
2021/10/01 10:28:28;;;;;;;8.55;1.40;;;25.00;54.50;;;;;;4994808;28;20096;-68
2021/10/01 10:30:55;;;;;;;5.10;1.27;;;25.00;54.40;;;;;;4997240;28;20077;-68
2021/10/01 10:33:39;;;;;;;5.75;1.33;;;25.10;54.70;;;;;;4999814;28;20042;-68
2021/10/01 10:36:27;;;;;;;6.47;1.38;;;25.10;54.50;;;;;;4996948;28;20124;-68
2021/10/01 10:38:57;;;;;;;6.28;1.40;;;25.00;54.20;;;;;;4998402;28;20084;-68
2021/10/01 10:41:28;;;;;;;13.13;1.60;;;25.00;54.50;;;;;;4997678;28;20500;-68
2021/10/01 10:43:54;;;;;;;4.55;1.27;;;25.00;54.30;;;;;;4997179;28;20046;-69
2021/10/01 10:46:40;;;;;;;5.15;1.42;;;25.10;54.60;;;;;;4996828;28;20117;-68
2021/10/01 10:49:22;;;;;;;6.93;1.25;;;25.00;52.80;;;;;;4997810;28;20045;-69
2021/10/01 10:52:10;;;;;;;4.18;1.00;;;24.70;52.50;;;;;;4995386;28;20073;-67
2021/10/01 10:54:39;;;;;;;7.75;1.23;;;24.40;52.70;;;;;;4994454;28;20117;-68
2021/10/01 10:57:17;;;;;;;5.63;1.30;;;24.30;53.10;;;;;;4993666;28;20046;-67
2021/10/01 10:59:55;;;;;;;7.15;1.20;;;24.30;53.50;;;;;;5010240;28;20677;-68
2021/10/01 11:02:27;;;;;;;6.85;1.10;;;24.10;53.30;;;;;;4994977;28;20046;-68
2021/10/01 11:05:26;;;;;;;9.85;1.50;;;24.20;54.20;;;;;;4998289;28;20046;-68
2021/10/01 11:08:03;;;;;;;7.90;1.35;;;24.20;53.70;;;;;;4993792;28;20037;-68
2021/10/01 11:10:38;;;;;;;3.70;1.02;;;24.10;53.40;;;;;;4994090;28;20038;-67
2021/10/01 11:13:19;;;;;;;4.75;1.00;;;24.10;53.60;;;;;;4996645;28;20085;-68
2021/10/01 11:16:12;;;;;;;4.38;1.20;;;24.00;53.70;;;;;;4995270;28;20042;-68
2021/10/01 11:18:44;;;;;;;6.20;1.48;;;23.90;53.70;;;;;;4997352;28;20037;-68
2021/10/01 11:21:29;;;;;;;5.03;0.90;;;23.90;53.90;;;;;;4996941;28;20482;-68
2021/10/01 11:23:56;;;;;;;8.45;1.55;;;23.80;53.60;;;;;;4997035;28;20046;-68
2021/10/01 11:26:35;;;;;;;6.03;1.30;;;23.70;53.80;;;;;;4993837;28;20047;-68
2021/10/01 11:29:03;;;;;;;8.20;1.20;;;23.80;53.90;;;;;;4995759;28;20041;-68
2021/10/01 11:31:37;;;;;;;6.65;1.05;;;23.80;53.90;;;;;;4996111;28;20121;-68
2021/10/01 11:34:03;;;;;;;7.03;1.40;;;23.80;53.90;;;;;;4995039;28;20034;-68
2021/10/01 11:36:29;;;;;;;4.93;1.02;;;23.80;53.90;;;;;;4995540;28;20049;-68
2021/10/01 11:39:06;;;;;;;7.05;1.52;;;23.80;53.90;;;;;;4996060;28;20415;-68
2021/10/01 11:41:32;;;;;;;6.38;1.30;;;23.80;54.00;;;;;;4997145;28;20081;-68
2021/10/01 11:44:00;;;;;;;14.05;1.60;;;23.80;54.00;;;;;;4994794;28;20146;-68
2021/10/01 11:46:35;;;;;;;9.25;1.60;;;23.80;54.10;;;;;;4997245;28;20447;-68
2021/10/01 11:49:03;;;;;;;7.15;1.33;;;23.80;54.10;;;;;;4994561;28;20905;-69
2021/10/01 11:51:30;;;;;;;5.95;1.30;;;23.80;54.10;;;;;;4993197;28;20054;-68
2021/10/01 11:54:12;;;;;;;5.55;1.30;;;23.80;54.20;;;;;;4994704;28;20058;-68
2021/10/01 11:56:39;;;;;;;5.88;1.20;;;23.80;54.20;;;;;;4996029;28;20046;-67
2021/10/01 11:59:05;;;;;;;6.03;1.48;;;23.80;54.20;;;;;;4994506;28;20073;-67
2021/10/01 12:01:31;;;;;;;8.52;1.50;;;23.80;54.30;;;;;;4994272;28;20049;-67
2021/10/01 12:03:59;;;;;;;5.82;1.30;;;23.80;54.30;;;;;;4996049;28;20034;-67
2021/10/01 12:06:30;;;;;;;9.02;1.50;;;23.80;54.30;;;;;;4994850;28;20042;-68
2021/10/01 12:08:58;;;;;;;7.68;1.50;;;23.80;54.30;;;;;;4995319;28;20041;-67
2021/10/01 12:11:26;;;;;;;10.63;1.48;;;23.80;54.30;;;;;;4993269;28;20782;-68
2021/10/01 12:13:52;;;;;;;11.35;1.33;;;23.80;54.60;;;;;;4995079;28;20541;-65
2021/10/01 12:16:19;;;;;;;9.50;1.70;;;23.90;54.50;;;;;;4995434;28;20053;-66
2021/10/01 12:18:59;;;;;;;10.68;1.92;;;24.00;54.60;;;;;;4993622;28;20125;-64
2021/10/01 12:21:28;;;;;;;11.95;1.70;;;24.00;54.70;;;;;;4993998;28;20034;-65
2021/10/01 12:23:59;;;;;;;23.00;1.75;;;23.90;54.50;;;;;;4993754;28;20070;-65
2021/10/01 12:26:33;;;;;;;10.93;1.67;;;23.90;54.30;;;;;;4995194;28;20113;-65
2021/10/01 12:29:23;;;;;;;13.05;1.50;;;23.80;54.10;;;;;;4991957;28;20059;-65
2021/10/01 12:31:52;;;;;;;15.98;1.88;;;23.80;54.10;;;;;;4990792;28;20053;-62
2021/10/01 12:34:22;;;;;;;10.27;1.52;;;23.80;54.50;;;;;;4994193;28;20050;-62
2021/10/01 12:36:56;;;;;;;12.75;1.30;;;23.70;54.40;;;;;;5013357;28;20019;-61
2021/10/01 12:39:25;;;;;;;12.00;1.50;;;23.70;54.40;;;;;;5014126;28;20050;-63
2021/10/01 12:42:01;;;;;;;10.55;1.67;;;23.60;54.30;;;;;;4994997;28;20144;-63
2021/10/01 12:44:32;;;;;;;6.72;1.50;;;23.60;54.40;;;;;;4994450;28;20034;-62
2021/10/01 12:47:10;;;;;;;5.20;1.20;;;23.60;54.40;;;;;;4992806;28;20046;-63
2021/10/01 12:49:36;;;;;;;7.25;1.23;;;23.50;54.30;;;;;;4993310;28;20385;-62
2021/10/01 12:52:20;;;;;;;7.57;1.77;;;23.40;54.40;;;;;;4995231;28;20083;-62
2021/10/01 12:54:47;;;;;;;8.23;1.42;;;23.40;54.40;;;;;;4995589;28;20077;-62
2021/10/01 12:57:27;;;;;;;7.97;1.42;;;23.40;54.60;;;;;;4993889;28;20049;-61
2021/10/01 12:59:58;;;;;;;6.25;1.33;;;23.30;54.50;;;;;;4992762;28;20038;-63
2021/10/01 13:02:38;;;;;;;9.90;1.50;;;23.30;54.60;;;;;;4995794;28;20121;-62
2021/10/01 13:05:05;;;;;;;11.95;1.35;;;23.30;54.80;;;;;;4999699;28;20041;-62
2021/10/01 13:07:40;;;;;;;13.85;1.60;;;23.20;54.60;;;;;;4997523;28;20466;-62
2021/10/01 13:10:49;;;;;;;4.72;1.10;;;23.20;54.70;;;;;;4997276;28;20042;-62
2021/10/01 13:13:22;;;;;;;5.40;1.30;;;23.20;54.60;;;;;;4995753;28;20566;-62
2021/10/01 13:15:55;;;;;;;5.88;1.10;;;23.10;54.50;;;;;;4998793;28;20046;-62
2021/10/01 13:18:22;;;;;;;6.55;1.40;;;23.10;54.70;;;;;;4997265;28;20049;-63
2021/10/01 13:21:02;;;;;;;8.40;1.50;;;23.10;54.80;;;;;;4998392;28;20189;-62
2021/10/01 13:23:30;;;;;;;5.45;1.20;;;23.00;54.60;;;;;;4997168;28;20089;-62
2021/10/01 13:25:59;;;;;;;6.45;1.23;;;23.00;54.60;;;;;;4996041;28;20065;-63
2021/10/01 13:28:26;;;;;;;16.90;1.50;;;23.00;54.90;;;;;;4997351;28;20070;-63
2021/10/01 13:30:52;;;;;;;10.55;1.58;;;22.90;54.70;;;;;;4998718;28;20124;-63
2021/10/01 13:33:22;;;;;;;10.85;1.45;;;23.00;55.00;;;;;;4995525;28;20113;-63
2021/10/01 13:35:48;;;;;;;11.13;1.25;;;22.90;54.80;;;;;;4994775;28;20042;-63
2021/10/01 13:38:13;;;;;;;7.95;1.30;;;22.90;54.70;;;;;;4999018;28;20159;-64
2021/10/01 13:40:41;;;;;;;10.10;1.45;;;22.90;54.70;;;;;;5000397;28;20061;-63
2021/10/01 13:43:07;;;;;;;8.88;1.60;;;22.90;54.70;;;;;;4995130;28;20058;-63
2021/10/01 13:45:33;;;;;;;10.55;1.40;;;22.90;54.90;;;;;;4995971;28;20058;-63
2021/10/01 13:48:00;;;;;;;10.50;1.35;;;22.80;54.90;;;;;;5000561;28;20061;-63
2021/10/01 13:50:25;;;;;;;10.88;1.45;;;22.80;54.90;;;;;;4995669;28;20069;-63
2021/10/01 13:52:51;;;;;;;7.72;1.10;;;22.80;54.80;;;;;;4996343;28;20483;-63
2021/10/01 13:55:18;;;;;;;6.13;1.13;;;22.80;54.90;;;;;;4999251;28;20053;-62
2021/10/01 13:57:45;;;;;;;15.63;1.38;;;22.80;55.00;;;;;;4995867;28;20564;-63
2021/10/01 14:00:14;;;;;;;8.82;1.30;;;22.80;55.00;;;;;;4997288;28;20038;-63
2021/10/01 14:02:41;;;;;;;5.97;1.17;;;22.80;55.20;;;;;;4993859;28;20061;-64
2021/10/01 14:05:10;;;;;;;9.93;1.30;;;22.70;54.80;;;;;;4999367;28;20499;-63
2021/10/01 14:07:38;;;;;;;15.65;1.23;;;22.70;55.00;;;;;;4994977;28;20129;-63
2021/10/01 14:10:08;;;;;;;8.18;1.08;;;22.70;55.10;;;;;;4996073;28;20682;-63
2021/10/01 14:12:36;;;;;;;6.53;1.15;;;22.70;54.80;;;;;;4996040;28;20491;-62
2021/10/01 14:15:04;;;;;;;7.85;1.35;;;22.70;55.00;;;;;;4997937;28;20095;-62
2021/10/01 14:17:31;;;;;;;8.30;1.27;;;22.70;55.20;;;;;;4996354;28;20030;-62
2021/10/01 14:19:56;;;;;;;8.85;1.00;;;22.70;55.20;;;;;;4997807;28;20042;-64
2021/10/01 14:22:23;;;;;;;8.80;1.50;;;22.70;55.20;;;;;;4997818;28;20828;-64
2021/10/01 14:24:49;;;;;;;6.13;1.27;;;22.70;55.20;;;;;;4996518;28;20364;-63
2021/10/01 14:27:16;;;;;;;11.48;1.52;;;22.60;55.10;;;;;;4997789;28;20049;-63
2021/10/01 14:29:43;;;;;;;10.38;1.33;;;22.60;55.10;;;;;;4996559;28;20039;-64
2021/10/01 14:32:10;;;;;;;6.60;1.17;;;22.60;55.30;;;;;;4996384;28;20168;-64
2021/10/01 14:34:36;;;;;;;9.18;1.30;;;22.60;55.20;;;;;;4996675;28;20138;-63